Terminal Aerodrome Forecast
Issued by NWS

Current Version | Previous Version | Text Only | Print | Product List | Glossary On
Versions: 1 2 3 4 5 6 7 8 9 10 11 12
000
FTUS45 KGGW 121126
TAFGDV
TAF
KGDV 121126Z 1212/1312 19006KT P6SM SKC
     FM121800 25011KT P6SM SKC
     FM122300 27013G21KT P6SM FEW230 WS020/30040KT
     FM130100 29019G29KT P6SM SCT210 WS020/31045KT
     FM130200 29021G31KT P6SM BKN190=

USA.gov is the U.S. government's official web portal to all federal, state and local government web resources and services.